Time;durP1;ratioP1;P1;durP2;ratioP2;P2;SDS_P1;SDS_P2;PMS_P1;PMS_P2;Temp;Humidity;BMP_temperature;BMP_pressure;BME280_temperature;BME280_humidity;BME280_pressure;Samples;Min_cycle;Max_cycle;Signal;HPM_P1;HPM_P2
2022/06/08 00:00:47;;;;;;;;;2.33;2.33;;;;;20.70;56.22;100837.97;5082189;27;45627;-66
2022/06/08 00:03:21;;;;;;;;;2.00;2.00;;;;;20.52;57.09;100827.59;5064891;27;45290;-66
2022/06/08 00:05:47;;;;;;;;;4.67;2.00;;;;;20.54;56.73;100825.44;5070751;27;45341;-67
2022/06/08 00:08:12;;;;;;;;;1.67;1.67;;;;;20.50;57.00;100823.34;5095072;27;45322;-67
2022/06/08 00:10:37;;;;;;;;;2.00;2.00;;;;;20.55;57.68;100815.25;5101652;27;45542;-66
2022/06/08 00:13:03;;;;;;;;;3.33;2.00;;;;;20.46;56.79;100794.44;5094396;27;45412;-67
2022/06/08 00:15:29;;;;;;;;;2.00;2.00;;;;;20.56;57.08;100803.16;5101873;27;45617;-67
2022/06/08 00:17:54;;;;;;;;;3.33;2.33;;;;;20.56;58.03;100800.41;5091426;27;45422;-66
2022/06/08 00:20:20;;;;;;;;;7.00;5.67;;;;;20.47;58.28;100812.69;5097457;27;45466;-67
2022/06/08 00:22:46;;;;;;;;;5.33;5.00;;;;;20.51;58.14;100811.22;5092699;27;45530;-67
2022/06/08 00:25:12;;;;;;;;;3.00;2.00;;;;;20.50;58.65;100813.16;5099310;27;45535;-66
2022/06/08 00:27:37;;;;;;;;;2.00;2.00;;;;;20.52;59.66;100800.00;5094159;27;45409;-66
2022/06/08 00:30:06;;;;;;;;;4.00;4.00;;;;;20.52;61.09;100797.22;5102786;27;45462;-66
2022/06/08 00:32:32;;;;;;;;;2.00;1.33;;;;;20.51;60.37;100791.91;5078887;27;45389;-67
2022/06/08 00:34:59;;;;;;;;;4.00;2.67;;;;;20.52;60.95;100800.00;5098944;27;46100;-66
2022/06/08 00:37:25;;;;;;;;;2.00;2.00;;;;;20.49;61.03;100802.31;5088298;27;45461;-66
2022/06/08 00:39:50;;;;;;;;;4.00;4.00;;;;;20.37;61.15;100796.59;5078771;27;45286;-66
2022/06/08 00:42:16;;;;;;;;;4.00;3.00;;;;;20.23;61.83;100788.47;5092108;27;45948;-66
2022/06/08 00:44:51;;;;;;;;;4.33;3.00;;;;;20.17;63.27;100787.38;5100809;27;45484;-67
2022/06/08 00:47:21;;;;;;;;;2.33;2.33;;;;;20.17;63.10;100792.91;5087011;27;45405;-66
2022/06/08 00:49:54;;;;;;;;;3.00;3.00;;;;;20.23;62.33;100785.72;5103303;27;45453;-66
2022/06/08 00:52:20;;;;;;;;;2.00;2.00;;;;;20.21;61.87;100772.97;5093643;27;45416;-67
2022/06/08 00:54:50;;;;;;;;;4.00;2.00;;;;;20.21;61.03;100781.25;5104221;27;45886;-66
2022/06/08 00:57:41;;;;;;;;;3.67;0.67;;;;;20.17;61.29;100770.81;5098080;27;45490;-66
2022/06/08 01:00:09;;;;;;;;;5.00;3.33;;;;;20.13;61.63;100778.69;5076053;28;46047;-66
2022/06/08 01:02:35;;;;;;;;;6.00;3.00;;;;;20.10;61.94;100772.72;5070345;27;45491;-67
2022/06/08 01:05:21;;;;;;;;;2.00;1.67;;;;;20.10;61.94;100769.97;5104625;27;45361;-66
2022/06/08 01:07:49;;;;;;;;;6.00;3.00;;;;;20.00;62.02;100772.31;5078630;27;47217;-66
2022/06/08 01:10:21;;;;;;;;;2.00;2.00;;;;;20.02;62.55;100768.25;5101216;27;45567;-67
2022/06/08 01:12:48;;;;;;;;;5.00;2.00;;;;;19.96;63.00;100760.81;5094010;27;45439;-66
2022/06/08 01:15:19;;;;;;;;;2.33;2.33;;;;;20.00;62.01;100761.28;5095989;27;45443;-67
2022/06/08 01:17:45;;;;;;;;;3.67;2.33;;;;;19.96;62.60;100760.81;5073214;28;47258;-67
2022/06/08 01:20:11;;;;;;;;;2.67;2.67;;;;;19.93;62.79;100755.75;5102811;27;45380;-67
2022/06/08 01:22:37;;;;;;;;;2.00;2.00;;;;;19.87;61.90;100756.56;5092687;27;45558;-67
2022/06/08 01:25:05;;;;;;;;;3.67;3.00;;;;;19.74;63.24;100757.38;5085349;27;45469;-67
2022/06/08 01:27:45;;;;;;;;;3.00;3.00;;;;;19.80;64.04;100772.22;5085867;27;45566;-67
2022/06/08 01:30:13;;;;;;;;;3.33;2.00;;;;;19.85;63.29;100764.22;5084043;27;45427;-66
2022/06/08 01:32:43;;;;;;;;;4.00;2.00;;;;;19.85;63.88;100746.81;5071702;28;45422;-67
2022/06/08 01:35:26;;;;;;;;;2.67;2.33;;;;;19.82;63.67;100742.56;5084958;27;45329;-67
2022/06/08 01:38:06;;;;;;;;;3.00;1.00;;;;;19.88;64.17;100752.75;5088724;27;46342;-67
2022/06/08 01:41:07;;;;;;;;;1.67;1.67;;;;;19.91;63.16;100745.97;5099600;27;45485;-67
2022/06/08 01:44:10;;;;;;;;;6.00;3.00;;;;;19.86;63.46;100741.09;5072799;27;45497;-67
2022/06/08 01:47:02;;;;;;;;;5.00;2.33;;;;;19.79;63.64;100737.47;5086884;27;45849;-67
2022/06/08 01:49:35;;;;;;;;;5.67;4.00;;;;;19.81;64.54;100757.41;5076925;27;46287;-67
2022/06/08 01:52:10;;;;;;;;;6.00;3.00;;;;;19.69;65.63;100773.69;5073542;27;45522;-67
2022/06/08 01:54:47;;;;;;;;;2.33;2.33;;;;;19.72;65.36;100766.94;5072436;28;45513;-67
2022/06/08 01:57:28;;;;;;;;;4.00;4.00;;;;;19.60;65.99;100760.31;5090289;27;45547;-67
2022/06/08 02:00:04;;;;;;;;;2.00;2.00;;;;;19.59;66.31;100753.09;5102776;27;46448;-67
2022/06/08 02:02:51;;;;;;;;;4.00;3.33;;;;;19.63;65.68;100748.88;5091522;27;45231;-67
2022/06/08 02:05:20;;;;;;;;;6.00;2.67;;;;;19.57;66.39;100760.75;5065962;27;45484;-67
2022/06/08 02:08:11;;;;;;;;;5.00;3.67;;;;;19.51;67.27;100753.28;5073850;27;45565;-67
2022/06/08 02:10:57;;;;;;;;;0.33;0.33;;;;;19.45;66.88;100733.72;5083960;27;46306;-67
2022/06/08 02:13:30;;;;;;;;;4.00;4.00;;;;;19.38;67.84;100732.84;5092949;27;45613;-67
2022/06/08 02:16:03;;;;;;;;;4.00;3.00;;;;;19.39;67.36;100742.81;5086222;27;45401;-67
2022/06/08 02:18:37;;;;;;;;;2.33;2.00;;;;;19.33;68.61;100732.63;5079830;27;45306;-67
2022/06/08 02:21:12;;;;;;;;;2.00;2.00;;;;;19.38;69.17;100741.13;5091493;27;45393;-67
2022/06/08 02:23:51;;;;;;;;;2.33;2.33;;;;;19.34;69.35;100739.84;5072082;28;46070;-67
2022/06/08 02:26:38;;;;;;;;;2.00;2.00;;;;;19.30;69.94;100744.03;5085797;27;45432;-67
2022/06/08 02:29:10;;;;;;;;;4.67;3.67;;;;;19.25;72.62;100737.47;5093972;27;45322;-66
2022/06/08 02:31:43;;;;;;;;;6.00;3.33;;;;;19.14;74.67;100738.88;5089434;27;45541;-66
2022/06/08 02:34:28;;;;;;;;;4.67;2.33;;;;;19.15;76.80;100751.59;5097114;27;45288;-66
2022/06/08 02:36:57;;;;;;;;;5.67;3.00;;;;;19.07;78.23;100734.44;5088482;27;45696;-66
2022/06/08 02:39:38;;;;;;;;;3.00;3.00;;;;;19.04;77.78;100746.69;5102359;27;45340;-66
2022/06/08 02:42:19;;;;;;;;;1.00;1.00;;;;;18.90;79.73;100731.16;5075466;27;46697;-66
2022/06/08 02:44:50;;;;;;;;;3.00;3.00;;;;;18.87;78.77;100731.53;5099758;27;45320;-66
2022/06/08 02:47:29;;;;;;;;;1.00;1.00;;;;;18.84;81.53;100734.72;5089031;27;45380;-66
2022/06/08 02:49:55;;;;;;;;;5.00;3.00;;;;;18.67;81.54;100718.50;5083767;27;45473;-66
2022/06/08 02:52:23;;;;;;;;;3.00;3.00;;;;;18.60;81.23;100723.13;5084955;27;45663;-66
2022/06/08 02:54:50;;;;;;;;;6.00;4.00;;;;;18.55;81.74;100733.84;5094788;27;45262;-66
2022/06/08 02:57:41;;;;;;;;;6.00;6.00;;;;;18.52;83.70;100726.00;5085257;27;45395;-66
2022/06/08 03:00:30;;;;;;;;;4.00;3.00;;;;;18.49;84.48;100728.28;5088598;27;45571;-67
2022/06/08 03:03:07;;;;;;;;;6.00;3.00;;;;;18.38;85.78;100712.34;5088560;27;45653;-66
2022/06/08 03:05:48;;;;;;;;;5.33;5.33;;;;;18.40;83.49;100710.25;5080204;27;45357;-67
2022/06/08 03:08:22;;;;;;;;;5.67;4.33;;;;;18.37;85.20;100699.63;5085621;27;45482;-67
2022/06/08 03:10:49;;;;;;;;;4.00;4.00;;;;;18.30;83.76;100710.59;5078963;27;45246;-66
2022/06/08 03:13:20;;;;;;;;;5.33;4.00;;;;;18.25;87.01;100702.09;5082839;27;47066;-66
2022/06/08 03:15:52;;;;;;;;;4.67;4.00;;;;;18.01;87.67;100700.63;5091827;27;45404;-67
2022/06/08 03:18:18;;;;;;;;;5.67;3.67;;;;;17.90;89.76;100685.50;5097987;27;45506;-67
2022/06/08 03:20:43;;;;;;;;;5.33;4.00;;;;;17.87;91.02;100683.16;5099004;27;45386;-66
2022/06/08 03:23:09;;;;;;;;;4.33;3.00;;;;;17.80;91.06;100684.13;5093118;27;45400;-66
2022/06/08 03:25:35;;;;;;;;;6.00;3.00;;;;;17.66;92.51;100672.19;5092299;27;45291;-66
2022/06/08 03:28:00;;;;;;;;;5.67;4.00;;;;;17.61;93.03;100663.66;5075516;28;45499;-67
2022/06/08 03:30:26;;;;;;;;;6.67;3.67;;;;;17.51;94.11;100657.63;5089735;27;45752;-66
2022/06/08 03:32:51;;;;;;;;;6.00;4.00;;;;;17.47;94.45;100654.38;5088465;27;47089;-66
2022/06/08 03:35:17;;;;;;;;;3.00;3.00;;;;;17.56;94.19;100644.13;5097787;27;45291;-66
2022/06/08 03:37:42;;;;;;;;;6.67;6.00;;;;;17.61;93.67;100646.28;5094602;27;45702;-66
2022/06/08 03:40:09;;;;;;;;;4.33;4.33;;;;;17.58;94.24;100652.19;5098295;27;45436;-66
2022/06/08 03:42:34;;;;;;;;;3.33;3.00;;;;;17.56;94.44;100627.66;5083541;27;47209;-66
2022/06/08 03:45:01;;;;;;;;;2.33;2.33;;;;;17.67;95.45;100640.91;5101112;27;45697;-66
2022/06/08 03:47:31;;;;;;;;;5.00;5.00;;;;;17.63;93.72;100636.84;5095953;27;48048;-66
2022/06/08 03:50:00;;;;;;;;;7.00;4.00;;;;;17.68;94.99;100645.31;5104365;27;45528;-66
2022/06/08 03:52:29;;;;;;;;;7.00;6.00;;;;;17.65;94.47;100648.50;5092567;27;45551;-67
2022/06/08 03:55:02;;;;;;;;;3.00;2.67;;;;;17.60;95.98;100650.94;5097957;27;45436;-67
2022/06/08 03:57:29;;;;;;;;;5.00;5.00;;;;;17.62;97.04;100648.88;5079718;27;45455;-67
2022/06/08 03:59:56;;;;;;;;;5.67;5.67;;;;;17.55;97.69;100650.66;5085330;27;45570;-66
2022/06/08 04:02:23;;;;;;;;;4.00;4.00;;;;;17.57;97.79;100642.25;5093956;27;46016;-66
2022/06/08 04:04:49;;;;;;;;;4.67;4.00;;;;;17.59;98.40;100641.00;5092579;27;45315;-67
2022/06/08 04:07:15;;;;;;;;;7.33;5.00;;;;;17.61;99.81;100646.28;5088687;27;45310;-67
2022/06/08 04:09:41;;;;;;;;;4.67;4.33;;;;;17.52;99.52;100640.09;5084945;28;45555;-67
2022/06/08 04:12:08;;;;;;;;;5.33;4.00;;;;;17.59;100.00;100637.41;5094165;27;46167;-67
2022/06/08 04:14:34;;;;;;;;;5.67;4.00;;;;;17.56;98.86;100630.41;5102061;27;45285;-68
2022/06/08 04:17:01;;;;;;;;;7.33;3.00;;;;;17.64;98.10;100624.81;5090074;27;45736;-67
2022/06/08 04:19:27;;;;;;;;;3.00;3.00;;;;;17.59;98.13;100626.41;5099287;27;45279;-67
2022/06/08 04:21:52;;;;;;;;;4.33;3.00;;;;;17.66;97.04;100622.72;5093559;27;45304;-67
2022/06/08 04:24:19;;;;;;;;;6.00;4.00;;;;;17.64;97.21;100623.94;5079858;27;45341;-66
2022/06/08 04:26:45;;;;;;;;;3.00;3.00;;;;;17.64;96.33;100613.81;5090051;27;45405;-66
2022/06/08 04:29:11;;;;;;;;;3.67;3.33;;;;;17.66;95.90;100603.47;5086210;27;45577;-67
2022/06/08 04:31:36;;;;;;;;;6.00;4.67;;;;;17.69;96.06;100600.31;5093617;27;45456;-66
2022/06/08 04:34:05;;;;;;;;;5.67;3.33;;;;;17.69;94.79;100600.31;5102409;27;45447;-66
2022/06/08 04:36:31;;;;;;;;;6.33;4.67;;;;;17.62;95.29;100601.31;5096847;27;45444;-66
2022/06/08 04:38:57;;;;;;;;;2.00;2.00;;;;;17.54;95.91;100605.00;5095711;27;45357;-66
2022/06/08 04:41:24;;;;;;;;;4.00;4.00;;;;;17.48;96.98;100597.56;5081120;27;45425;-67
2022/06/08 04:43:50;;;;;;;;;3.33;3.33;;;;;17.50;95.98;100596.31;5097739;27;45300;-67
2022/06/08 04:46:16;;;;;;;;;3.33;3.33;;;;;17.46;95.09;100591.41;5095460;27;45576;-67
2022/06/08 04:48:46;;;;;;;;;8.00;4.00;;;;;17.48;95.98;100592.06;5091428;27;45417;-66
2022/06/08 04:51:14;;;;;;;;;5.67;4.00;;;;;17.52;94.22;100590.66;5091908;27;46464;-67
2022/06/08 04:53:42;;;;;;;;;3.00;3.00;;;;;17.28;96.69;100591.03;5096494;27;45507;-66
2022/06/08 04:56:08;;;;;;;;;4.33;4.33;;;;;17.34;98.08;100580.09;5078807;27;45379;-66
2022/06/08 04:58:34;;;;;;;;;2.33;2.33;;;;;17.37;99.02;100581.63;5088342;27;45417;-66
2022/06/08 05:01:00;;;;;;;;;7.00;5.67;;;;;17.36;97.19;100578.03;5095368;27;45892;-67
2022/06/08 05:03:26;;;;;;;;;5.33;4.00;;;;;17.23;97.52;100583.38;5085833;27;45285;-67
2022/06/08 05:05:51;;;;;;;;;9.00;6.00;;;;;17.26;97.62;100568.41;5099016;27;45656;-67
2022/06/08 05:08:18;;;;;;;;;5.33;5.00;;;;;17.33;97.08;100572.91;5089425;27;45412;-67
2022/06/08 05:10:45;;;;;;;;;6.00;5.00;;;;;17.24;97.97;100570.50;5100010;27;46609;-69
2022/06/08 05:13:11;;;;;;;;;6.00;6.00;;;;;17.23;98.62;100557.81;5071302;28;45464;-67
2022/06/08 05:15:39;;;;;;;;;3.67;3.67;;;;;17.16;98.43;100556.91;5084029;27;45389;-67
2022/06/08 05:18:05;;;;;;;;;4.67;4.00;;;;;17.06;100.00;100554.47;5090448;27;45775;-67
2022/06/08 05:20:35;;;;;;;;;6.33;5.00;;;;;17.11;100.00;100557.47;5064470;27;47259;-67
2022/06/08 05:23:01;;;;;;;;;5.00;5.00;;;;;17.11;100.00;100550.09;5094077;27;45437;-67
2022/06/08 05:25:28;;;;;;;;;2.33;2.00;;;;;16.99;100.00;100553.56;5100502;27;45304;-67
2022/06/08 05:27:53;;;;;;;;;5.00;3.00;;;;;16.96;100.00;100548.44;5084089;27;45393;-67
2022/06/08 05:30:19;;;;;;;;;4.00;4.00;;;;;17.04;100.00;100545.59;5090122;27;45844;-68
2022/06/08 05:32:45;;;;;;;;;4.00;4.00;;;;;18.35;100.00;100540.28;5092989;27;45422;-68
2022/06/08 05:35:11;;;;;;;;;7.00;6.00;;;;;18.21;100.00;100550.38;5081835;27;45412;-69
2022/06/08 05:37:37;;;;;;;;;5.33;5.33;;;;;18.11;100.00;100546.31;5077763;27;46357;-68
2022/06/08 05:40:04;;;;;;;;;6.00;3.67;;;;;18.14;100.00;100544.00;5082733;27;46048;-67
2022/06/08 05:42:29;;;;;;;;;9.00;7.00;;;;;18.06;100.00;100551.53;5089116;27;46210;-68
2022/06/08 05:44:57;;;;;;;;;3.00;3.00;;;;;18.11;100.00;100543.56;5098709;27;45675;-68
2022/06/08 05:47:22;;;;;;;;;5.00;5.00;;;;;18.14;100.00;100543.13;5092157;27;45315;-67
2022/06/08 05:49:48;;;;;;;;;5.33;5.00;;;;;18.22;98.54;100546.59;5080252;27;48290;-68
2022/06/08 05:52:13;;;;;;;;;4.00;4.00;;;;;18.35;98.18;100539.44;5090312;27;45456;-67
2022/06/08 05:54:39;;;;;;;;;2.33;2.33;;;;;18.28;97.22;100548.50;5083303;27;45331;-67
2022/06/08 05:57:05;;;;;;;;;3.00;3.00;;;;;18.19;97.29;100546.97;5075102;28;45561;-68
2022/06/08 05:59:31;;;;;;;;;5.33;3.00;;;;;18.21;96.34;100549.53;5063223;28;45406;-67
2022/06/08 06:01:56;;;;;;;;;4.00;4.00;;;;;18.26;96.33;100549.78;5084310;27;45450;-69
2022/06/08 06:04:21;;;;;;;;;5.00;3.33;;;;;18.24;95.99;100550.00;5090088;27;44963;-69
2022/06/08 06:06:47;;;;;;;;;1.00;1.00;;;;;18.15;95.68;100548.44;5088278;27;45262;-69
2022/06/08 06:09:17;;;;;;;;;3.33;2.33;;;;;18.14;96.47;100554.13;5082539;27;45464;-69
2022/06/08 06:11:43;;;;;;;;;6.00;4.00;;;;;18.00;96.22;100546.84;5073492;27;45596;-67
2022/06/08 06:14:09;;;;;;;;;2.00;2.00;;;;;17.96;97.52;100556.56;5063399;28;45438;-69
2022/06/08 06:16:35;;;;;;;;;6.67;4.33;;;;;17.73;100.00;100546.69;5076884;27;46038;-67
2022/06/08 06:19:00;;;;;;;;;3.67;3.00;;;;;17.73;100.00;100556.81;5083777;27;47667;-69
2022/06/08 06:21:26;;;;;;;;;2.67;2.00;;;;;17.75;100.00;100557.47;5094683;27;45304;-67
2022/06/08 06:23:53;;;;;;;;;3.00;3.00;;;;;17.86;100.00;100548.66;5076956;27;45447;-69
2022/06/08 06:26:19;;;;;;;;;3.00;3.00;;;;;17.94;100.00;100553.16;5077901;27;45615;-69
2022/06/08 06:28:44;;;;;;;;;2.33;2.33;;;;;17.99;99.61;100556.16;5091267;27;45310;-69
2022/06/08 06:31:16;;;;;;;;;6.00;3.00;;;;;18.03;99.55;100551.97;5083728;27;45366;-69
2022/06/08 06:33:41;;;;;;;;;3.33;2.00;;;;;17.71;100.00;100554.28;5091617;27;45259;-70
2022/06/08 06:36:07;;;;;;;;;2.00;2.00;;;;;17.71;100.00;100561.66;5084316;27;45530;-69
2022/06/08 06:38:32;;;;;;;;;1.67;1.67;;;;;17.72;100.00;100558.72;5068001;28;46801;-68
2022/06/08 06:40:58;;;;;;;;;2.33;2.00;;;;;17.76;100.00;100557.25;5085186;27;45240;-68
2022/06/08 06:43:23;;;;;;;;;4.33;3.00;;;;;17.83;100.00;100558.16;5070780;27;45573;-68
2022/06/08 06:45:49;;;;;;;;;3.33;1.33;;;;;17.83;99.90;100563.66;5084667;27;45263;-68
2022/06/08 06:48:14;;;;;;;;;3.33;2.33;;;;;17.82;100.00;100564.72;5067550;28;46809;-68
2022/06/08 06:50:40;;;;;;;;;2.33;2.00;;;;;17.75;100.00;100566.53;5081807;27;45414;-68
2022/06/08 06:53:05;;;;;;;;;2.67;2.33;;;;;17.69;100.00;100556.34;5089899;27;45412;-68
2022/06/08 06:55:32;;;;;;;;;3.00;3.00;;;;;17.73;100.00;100557.69;5081458;27;45354;-68
2022/06/08 06:57:57;;;;;;;;;2.67;2.00;;;;;17.83;100.00;100565.53;5082261;27;47218;-68
2022/06/08 07:00:24;;;;;;;;;4.33;3.00;;;;;17.93;100.00;100562.47;5100750;27;45447;-69
2022/06/08 07:02:50;;;;;;;;;5.00;3.67;;;;;17.94;100.00;100564.16;5087735;27;45321;-69
2022/06/08 07:05:25;;;;;;;;;2.33;2.33;;;;;17.95;100.00;100571.38;5083761;27;45340;-69
2022/06/08 07:07:51;;;;;;;;;3.00;2.67;;;;;18.05;100.00;100571.84;5087904;27;45509;-69
2022/06/08 07:10:18;;;;;;;;;2.33;2.33;;;;;18.05;100.00;100572.69;5095829;27;45302;-69
2022/06/08 07:12:44;;;;;;;;;2.00;2.00;;;;;18.06;100.00;100576.28;5086256;27;45379;-69
2022/06/08 07:15:12;;;;;;;;;2.67;2.67;;;;;17.96;100.00;100575.81;5089849;27;45458;-68
2022/06/08 07:17:38;;;;;;;;;3.00;3.00;;;;;17.95;100.00;100571.38;5069226;27;46675;-69
2022/06/08 07:20:04;;;;;;;;;3.33;2.33;;;;;17.94;100.00;100566.91;5081086;27;45515;-69
2022/06/08 07:22:31;;;;;;;;;6.00;3.00;;;;;18.03;100.00;100576.72;5081012;27;45298;-68
2022/06/08 07:24:56;;;;;;;;;3.00;1.67;;;;;18.08;100.00;100566.81;5078183;27;45423;-68
2022/06/08 07:27:22;;;;;;;;;2.00;2.00;;;;;17.99;100.00;100573.50;5085577;27;45400;-69
2022/06/08 07:29:48;;;;;;;;;2.67;2.33;;;;;18.00;100.00;100575.19;5078506;28;45452;-69
2022/06/08 07:32:15;;;;;;;;;1.67;1.67;;;;;18.09;100.00;100567.66;5067494;28;45332;-69
2022/06/08 07:34:41;;;;;;;;;1.33;1.33;;;;;18.11;100.00;100566.41;5068782;28;45339;-69
2022/06/08 07:37:07;;;;;;;;;2.67;2.67;;;;;17.97;100.00;100578.34;5083595;27;45416;-69
2022/06/08 07:39:32;;;;;;;;;3.00;2.00;;;;;18.00;100.00;100569.69;5081806;28;45337;-69
2022/06/08 07:41:58;;;;;;;;;3.00;3.00;;;;;18.11;100.00;100566.41;5083650;27;45330;-69
2022/06/08 07:44:23;;;;;;;;;2.67;1.00;;;;;18.16;100.00;100574.91;5081974;27;45450;-69
2022/06/08 07:46:49;;;;;;;;;3.67;3.00;;;;;18.33;100.00;100580.94;5067881;27;48549;-70
2022/06/08 07:52:10;;;;;;;;;1.00;1.00;;;;;18.62;100.00;100560.56;5083563;27;45377;-70
2022/06/08 07:54:36;;;;;;;;;1.00;1.00;;;;;18.73;98.67;100570.13;5093303;27;45333;-71
2022/06/08 07:57:03;;;;;;;;;2.00;1.67;;;;;18.79;98.43;100574.81;5069015;27;47400;-70
2022/06/08 07:59:32;;;;;;;;;1.00;1.00;;;;;18.93;96.28;100571.88;5081260;27;45263;-70
2022/06/08 08:01:57;;;;;;;;;10.00;6.33;;;;;19.02;96.52;100570.66;5081366;27;45478;-71
2022/06/08 08:04:23;;;;;;;;;1.67;1.67;;;;;19.16;94.47;100559.66;5084557;27;45538;-70
2022/06/08 08:06:49;;;;;;;;;2.00;2.00;;;;;19.18;95.21;100558.41;5090591;27;45482;-70
2022/06/08 08:09:20;;;;;;;;;3.00;3.00;;;;;19.25;96.24;100561.19;5081875;28;45318;-70
2022/06/08 08:11:47;;;;;;;;;2.00;2.00;;;;;19.29;96.80;100565.19;5086687;27;45349;-70
2022/06/08 08:14:15;;;;;;;;;1.00;1.00;;;;;19.51;95.74;100552.97;5082718;28;45601;-71
2022/06/08 08:16:42;;;;;;;;;1.00;1.00;;;;;19.69;93.62;100560.59;5071316;27;47223;-71
2022/06/08 08:19:09;;;;;;;;;3.00;1.67;;;;;19.50;94.81;100561.47;5070972;28;45468;-71
2022/06/08 08:21:34;;;;;;;;;3.00;3.00;;;;;19.64;94.75;100557.66;5072811;27;45566;-70
2022/06/08 08:23:59;;;;;;;;;3.00;1.00;;;;;19.53;90.92;100561.88;5085773;27;45247;-70
2022/06/08 08:26:28;;;;;;;;;1.00;1.00;;;;;19.73;92.80;100557.19;5070517;27;46819;-70
2022/06/08 08:28:54;;;;;;;;;0.33;0.33;;;;;20.02;92.09;100553.13;5088559;27;45511;-70
2022/06/08 08:31:20;;;;;;;;;0.00;0.00;;;;;20.24;92.80;100555.66;5071966;28;45279;-70
2022/06/08 08:33:46;;;;;;;;;1.00;1.00;;;;;20.42;90.50;100544.81;5066514;27;46702;-70
2022/06/08 08:36:11;;;;;;;;;1.00;1.00;;;;;20.60;89.26;100547.72;5084753;27;46372;-70
2022/06/08 08:38:37;;;;;;;;;2.00;2.00;;;;;20.71;89.25;100544.25;5093861;27;45336;-70
2022/06/08 08:41:04;;;;;;;;;2.33;2.33;;;;;20.60;89.59;100558.78;5092802;27;45426;-70
2022/06/08 08:43:37;;;;;;;;;3.00;2.00;;;;;20.13;89.56;100548.88;5089552;27;45287;-70
2022/06/08 08:46:21;;;;;;;;;1.33;1.33;;;;;20.13;91.44;100558.00;5077314;27;47743;-70
2022/06/08 08:48:58;;;;;;;;;4.00;2.67;;;;;20.32;90.99;100567.28;5084791;27;45295;-71
2022/06/08 08:51:40;;;;;;;;;4.67;4.00;;;;;20.38;92.05;100566.47;5085714;27;45397;-70
2022/06/08 08:54:28;;;;;;;;;3.00;1.00;;;;;20.47;91.49;100572.59;5086782;27;45441;-71
2022/06/08 08:57:04;;;;;;;;;5.33;4.67;;;;;20.38;92.76;100573.91;5086099;27;46122;-70
2022/06/08 08:59:31;;;;;;;;;1.00;1.00;;;;;20.41;92.09;100570.69;5084935;27;45333;-70
2022/06/08 09:01:59;;;;;;;;;1.00;1.00;;;;;20.40;91.33;100582.81;5071133;28;45429;-70
2022/06/08 09:04:31;;;;;;;;;2.00;2.00;;;;;20.23;92.39;100567.75;5084926;27;45353;-70
2022/06/08 09:07:00;;;;;;;;;2.67;1.00;;;;;20.39;93.88;100578.34;5084338;27;46524;-70
2022/06/08 09:09:33;;;;;;;;;2.00;2.00;;;;;20.56;92.86;100585.09;5098087;27;45498;-70
2022/06/08 09:11:59;;;;;;;;;2.00;2.00;;;;;20.78;91.83;100572.69;5087233;27;45389;-70
2022/06/08 09:14:44;;;;;;;;;0.00;0.00;;;;;20.78;89.78;100575.44;5084844;27;45586;-70
2022/06/08 09:17:16;;;;;;;;;1.00;1.00;;;;;21.01;89.58;100585.13;5086400;27;45529;-70
2022/06/08 09:19:49;;;;;;;;;1.00;1.00;;;;;21.04;88.60;100574.47;5066140;27;45347;-70
2022/06/08 09:22:21;;;;;;;;;0.67;0.67;;;;;21.38;86.97;100578.78;5072879;28;45480;-70
2022/06/08 09:24:46;;;;;;;;;5.33;3.00;;;;;21.47;85.76;100571.91;5066632;28;45402;-70
2022/06/08 09:27:16;;;;;;;;;0.00;0.00;;;;;21.65;84.31;100577.50;5092608;27;45566;-70
2022/06/08 09:30:00;;;;;;;;;2.00;2.00;;;;;21.59;83.70;100570.09;5096770;27;45399;-70
2022/06/08 09:32:46;;;;;;;;;0.00;0.00;;;;;21.75;81.94;100568.72;5099543;27;45348;-70
2022/06/08 09:35:36;;;;;;;;;1.00;1.00;;;;;21.44;79.79;100560.44;5085234;27;45319;-70
2022/06/08 09:38:11;;;;;;;;;0.00;0.00;;;;;21.51;81.86;100567.63;5088187;27;45438;-70
2022/06/08 09:40:44;;;;;;;;;2.67;2.67;;;;;21.66;82.06;100576.44;5084930;27;45324;-69
2022/06/08 09:43:31;;;;;;;;;2.00;2.00;;;;;21.90;80.71;100560.91;5084858;27;45318;-70
2022/06/08 09:46:04;;;;;;;;;3.33;1.67;;;;;22.24;80.36;100562.28;5098627;27;45691;-70
2022/06/08 09:51:51;;;;;;;;;2.67;2.67;;;;;22.25;76.42;100557.59;5083850;27;45459;-71
2022/06/08 09:54:23;;;;;;;;;1.67;1.00;;;;;22.33;73.71;100560.94;5083553;27;45432;-70
2022/06/08 09:57:13;;;;;;;;;2.33;1.00;;;;;22.25;73.14;100549.31;5085369;27;45642;-71
2022/06/08 09:59:51;;;;;;;;;2.33;2.33;;;;;22.71;72.65;100551.53;5099586;27;45445;-71
2022/06/08 10:02:40;;;;;;;;;1.00;0.67;;;;;22.23;71.67;100552.28;5090706;27;45582;-70
2022/06/08 10:05:06;;;;;;;;;0.00;0.00;;;;;22.53;71.87;100555.16;5083573;27;45536;-70
2022/06/08 10:07:51;;;;;;;;;1.00;1.00;;;;;23.18;71.81;100553.47;5071566;28;45372;-70
2022/06/08 10:10:35;;;;;;;;;2.00;2.00;;;;;23.66;70.06;100547.00;5083512;27;46565;-70
2022/06/08 10:13:11;;;;;;;;;2.33;1.00;;;;;23.77;66.85;100540.59;5088504;27;45450;-69
2022/06/08 10:15:46;;;;;;;;;3.00;3.00;;;;;23.44;65.71;100535.59;5102499;27;45850;-71
2022/06/08 10:18:14;;;;;;;;;1.00;1.00;;;;;22.70;72.17;100547.06;5087979;27;45418;-70
2022/06/08 10:20:46;;;;;;;;;3.33;3.00;;;;;21.86;78.65;100547.75;5084497;27;46572;-70
2022/06/08 10:23:20;;;;;;;;;2.00;2.00;;;;;20.92;91.92;100552.22;5064663;27;45498;-70
2022/06/08 10:25:54;;;;;;;;;5.33;4.00;;;;;20.71;100.00;100569.13;5086198;27;45421;-68
2022/06/08 10:28:44;;;;;;;;;10.33;10.33;;;;;22.93;100.00;100574.09;5093763;27;45167;-68
2022/06/08 10:31:21;;;;;;;;;6.67;6.00;;;;;-144.62;100.00;60556.56;5087365;27;45450;-68
2022/06/08 10:33:59;;;;;;;;;5.67;3.00;;;;;-144.62;100.00;60556.56;5073421;27;45399;-69
2022/06/08 10:36:26;;;;;;;;;6.00;4.00;;;;;-144.62;100.00;60556.56;5084523;27;45788;-69
2022/06/08 10:38:52;;;;;;;;;5.00;4.00;;;;;-144.62;100.00;60556.56;5083150;27;45491;-69
2022/06/08 10:44:47;;;;;;;;;4.00;4.00;;;;;-144.62;100.00;60556.56;5090666;27;45648;-69
2022/06/08 10:47:13;;;;;;;;;9.00;7.67;;;;;-144.62;100.00;60556.56;5084431;27;45423;-68
2022/06/08 10:49:38;;;;;;;;;7.00;7.00;;;;;-144.62;100.00;60556.56;5083750;28;45533;-68
2022/06/08 10:52:19;;;;;;;;;6.00;5.00;;;;;-144.62;100.00;60556.56;5085082;27;45790;-68
2022/06/08 10:54:57;;;;;;;;;5.00;5.00;;;;;-144.62;100.00;60556.56;5082995;27;45350;-71
2022/06/08 10:57:42;;;;;;;;;6.33;6.33;;;;;-144.62;100.00;60556.56;5093428;27;45414;-69
2022/06/08 11:00:19;;;;;;;;;5.00;5.00;;;;;-144.62;100.00;60556.56;5097910;27;45204;-68
2022/06/08 11:03:02;;;;;;;;;6.67;6.33;;;;;-144.62;100.00;60556.56;5089983;27;45351;-68
2022/06/08 11:05:41;;;;;;;;;5.67;5.67;;;;;-144.62;100.00;60556.56;5072450;27;45318;-69
2022/06/08 11:08:07;;;;;;;;;7.00;7.00;;;;;-144.62;100.00;60556.56;5085146;27;45423;-69
2022/06/08 11:10:44;;;;;;;;;7.67;6.33;;;;;-144.62;100.00;60556.56;5083327;27;45500;-71
2022/06/08 11:13:32;;;;;;;;;9.67;7.67;;;;;-144.62;100.00;60556.56;5088440;27;45418;-68
2022/06/08 11:16:13;;;;;;;;;7.33;6.00;;;;;-144.62;100.00;60556.56;5098808;27;45841;-69
2022/06/08 11:18:44;;;;;;;;;5.67;3.00;;;;;-144.62;100.00;60556.56;5076011;28;45206;-68
2022/06/08 11:21:12;;;;;;;;;7.67;6.33;;;;;-144.62;100.00;60556.56;5084969;27;45190;-69
2022/06/08 11:23:46;;;;;;;;;4.00;4.00;;;;;-144.62;100.00;60556.56;5082906;27;46446;-70
2022/06/08 11:26:14;;;;;;;;;5.33;5.33;;;;;-144.62;100.00;60556.56;5086651;27;45527;-70
2022/06/08 11:28:45;;;;;;;;;3.00;3.00;;;;;-144.62;100.00;60556.56;5085666;27;45487;-69
2022/06/08 11:31:32;;;;;;;;;4.67;4.67;;;;;-144.62;100.00;60556.56;5098906;27;45294;-69
2022/06/08 11:34:17;;;;;;;;;5.33;4.33;;;;;-144.62;100.00;60556.56;5094278;27;47164;-69
2022/06/08 11:37:31;;;;;;;;;7.00;5.33;;;;;-144.62;100.00;60556.56;5084726;27;45389;-70
2022/06/08 11:40:14;;;;;;;;;5.00;5.00;;;;;-144.62;100.00;60556.56;5082471;27;45359;-70
2022/06/08 11:42:53;;;;;;;;;5.67;5.67;;;;;-144.62;100.00;60556.56;5084978;27;45251;-72
2022/06/08 11:45:27;;;;;;;;;8.33;5.67;;;;;-144.62;100.00;60556.56;5082149;27;46124;-71
2022/06/08 11:48:14;;;;;;;;;4.33;4.00;;;;;-144.62;100.00;60556.56;5065844;27;45500;-71